Time;durP1;ratioP1;P1;durP2;ratioP2;P2;SDS_P1;SDS_P2;PMS_P1;PMS_P2;Temp;Humidity;BMP_temperature;BMP_pressure;BME280_temperature;BME280_humidity;BME280_pressure;Samples;Min_cycle;Max_cycle;Signal;HPM_P1;HPM_P2
2023/07/12 00:01:19;;;;;;;6.53;4.43;;;20.40;99.90;;;;;;5050775;28;20081;-50
2023/07/12 00:03:49;;;;;;;7.93;4.70;;;20.30;99.90;;;;;;5035497;28;20347;-51
2023/07/12 00:06:19;;;;;;;8.68;5.03;;;20.30;99.90;;;;;;5051956;28;20056;-49
2023/07/12 00:08:47;;;;;;;8.00;4.68;;;20.30;99.90;;;;;;5043069;28;20106;-53
2023/07/12 00:11:18;;;;;;;7.88;4.85;;;20.30;99.90;;;;;;5038856;28;20103;-48
2023/07/12 00:13:46;;;;;;;9.00;4.97;;;20.20;99.90;;;;;;5045114;28;20075;-48
2023/07/12 00:16:24;;;;;;;10.52;4.82;;;20.20;99.90;;;;;;5055142;28;20076;-53
2023/07/12 00:18:53;;;;;;;9.13;4.22;;;20.20;99.90;;;;;;5041258;28;20346;-47
2023/07/12 00:21:23;;;;;;;8.63;4.82;;;20.20;99.90;;;;;;5054081;28;20041;-48
2023/07/12 00:23:52;;;;;;;9.25;4.57;;;20.20;99.90;;;;;;5038737;28;20049;-50
2023/07/12 00:26:32;;;;;;;7.63;4.50;;;20.20;99.90;;;;;;5049058;28;20092;-50
2023/07/12 00:29:01;;;;;;;8.40;4.60;;;20.30;99.90;;;;;;5035469;28;20060;-52
2023/07/12 00:31:32;;;;;;;10.63;4.63;;;20.30;99.90;;;;;;5038430;28;20103;-49
2023/07/12 00:34:03;;;;;;;8.27;5.05;;;20.30;99.90;;;;;;5042140;28;20048;-49
2023/07/12 00:36:33;;;;;;;11.07;5.07;;;20.30;99.90;;;;;;5046580;28;20152;-48
2023/07/12 00:39:04;;;;;;;8.82;4.50;;;20.30;99.90;;;;;;5024303;28;20045;-47
2023/07/12 00:41:59;;;;;;;13.90;4.53;;;20.40;99.90;;;;;;5056161;28;20081;-48
2023/07/12 00:44:33;;;;;;;9.27;4.97;;;20.30;99.90;;;;;;5032311;28;20048;-51
2023/07/12 00:47:00;;;;;;;8.45;4.72;;;20.40;99.90;;;;;;5043183;28;20072;-50
2023/07/12 00:49:27;;;;;;;6.90;4.57;;;20.40;99.90;;;;;;5031083;28;20072;-49
2023/07/12 00:52:14;;;;;;;9.93;4.65;;;20.40;99.90;;;;;;5036399;28;20052;-48
2023/07/12 00:54:54;;;;;;;8.68;4.57;;;20.40;99.90;;;;;;5045855;28;20042;-47
2023/07/12 00:57:24;;;;;;;10.93;4.40;;;20.50;99.90;;;;;;5035851;28;20052;-43
2023/07/12 00:59:55;;;;;;;7.93;4.60;;;20.50;99.90;;;;;;5041895;28;20048;-47
2023/07/12 01:02:25;;;;;;;7.60;4.25;;;20.60;99.90;;;;;;5052071;28;20481;-52
2023/07/12 01:04:57;;;;;;;7.95;4.30;;;20.60;99.90;;;;;;5030883;28;20048;-47
2023/07/12 01:07:27;;;;;;;7.53;4.18;;;20.70;99.90;;;;;;5037725;28;20570;-55
2023/07/12 01:09:54;;;;;;;10.25;4.30;;;20.60;99.90;;;;;;5035141;28;20039;-48
2023/07/12 01:12:21;;;;;;;8.35;4.30;;;20.60;99.90;;;;;;5040944;28;20069;-51
2023/07/12 01:14:49;;;;;;;8.43;4.30;;;20.60;99.90;;;;;;5028147;28;20033;-56
2023/07/12 01:17:16;;;;;;;7.80;4.15;;;20.50;99.90;;;;;;5028098;28;20041;-51
2023/07/12 01:19:47;;;;;;;7.35;4.00;;;20.50;99.90;;;;;;5029722;28;20125;-53
2023/07/12 01:22:14;;;;;;;10.57;4.35;;;20.40;99.90;;;;;;5034828;28;20293;-49
2023/07/12 01:24:41;;;;;;;6.40;3.97;;;20.30;99.90;;;;;;5029789;28;20056;-51
2023/07/12 01:27:19;;;;;;;5.80;3.50;;;20.30;99.90;;;;;;5038016;28;20446;-51
2023/07/12 01:29:48;;;;;;;5.83;3.60;;;20.20;99.90;;;;;;5048471;23;20105;-36
2023/07/12 01:32:15;;;;;;;7.25;4.18;;;20.20;99.90;;;;;;5046615;28;20053;-37
2023/07/12 01:34:45;;;;;;;9.52;4.28;;;20.20;99.90;;;;;;5069442;28;20504;-37
2023/07/12 01:37:13;;;;;;;5.50;3.40;;;20.30;99.90;;;;;;5067733;28;20079;-37
2023/07/12 01:39:40;;;;;;;7.88;2.85;;;20.30;99.90;;;;;;5068149;28;20409;-36
2023/07/12 01:42:10;;;;;;;7.32;3.30;;;20.40;99.90;;;;;;5053996;28;20053;-36
2023/07/12 01:44:38;;;;;;;6.68;3.17;;;20.50;99.90;;;;;;5057210;28;20053;-39
2023/07/12 01:47:05;;;;;;;5.55;3.50;;;20.50;99.90;;;;;;5053723;28;20049;-37
2023/07/12 01:49:33;;;;;;;6.47;3.00;;;20.60;99.90;;;;;;5026556;28;20045;-38
2023/07/12 01:52:00;;;;;;;6.20;3.17;;;20.60;99.90;;;;;;5054580;28;20053;-39
2023/07/12 01:54:27;;;;;;;4.72;2.90;;;20.60;99.90;;;;;;5055818;28;20072;-38
2023/07/12 01:56:55;;;;;;;7.78;3.20;;;20.60;99.90;;;;;;5057591;28;20552;-37
2023/07/12 01:59:22;;;;;;;7.72;3.42;;;20.60;99.90;;;;;;5056106;28;20044;-39
2023/07/12 02:01:50;;;;;;;6.88;3.40;;;20.60;99.90;;;;;;5049211;28;20051;-38
2023/07/12 02:04:17;;;;;;;7.72;3.97;;;20.40;99.90;;;;;;5058818;28;20139;-38
2023/07/12 02:06:44;;;;;;;7.07;4.35;;;20.20;99.90;;;;;;5028544;28;20044;-37
2023/07/12 02:09:12;;;;;;;8.15;4.22;;;20.10;99.90;;;;;;5062041;28;20118;-36
2023/07/12 02:11:40;;;;;;;10.38;4.55;;;20.10;99.90;;;;;;5028042;28;20127;-39
2023/07/12 02:14:07;;;;;;;7.97;4.38;;;20.00;99.90;;;;;;5033814;28;20127;-35
2023/07/12 02:16:35;;;;;;;10.38;4.32;;;20.00;99.90;;;;;;5051768;28;20096;-37
2023/07/12 02:19:02;;;;;;;8.93;4.60;;;19.90;99.90;;;;;;5037639;28;20048;-38
2023/07/12 02:21:30;;;;;;;7.95;4.22;;;20.00;99.90;;;;;;5058601;28;20500;-37
2023/07/12 02:23:57;;;;;;;8.82;4.57;;;19.80;99.90;;;;;;5054076;28;20493;-37
2023/07/12 02:26:24;;;;;;;5.68;4.03;;;19.80;99.90;;;;;;5057901;28;20040;-35
2023/07/12 02:28:52;;;;;;;6.03;3.97;;;19.80;99.90;;;;;;5059394;28;20051;-37
2023/07/12 02:31:24;;;;;;;6.03;3.50;;;19.80;99.90;;;;;;5038428;28;20064;-37
2023/07/12 02:33:55;;;;;;;6.18;3.42;;;19.90;99.90;;;;;;5053070;28;20132;-36
2023/07/12 02:36:23;;;;;;;7.93;3.33;;;19.80;99.90;;;;;;5065260;28;20056;-37
2023/07/12 02:38:51;;;;;;;6.35;3.35;;;19.80;99.90;;;;;;5067863;28;20105;-37
2023/07/12 02:41:19;;;;;;;6.15;3.28;;;19.70;99.90;;;;;;5053410;28;20041;-42
2023/07/12 02:43:47;;;;;;;5.63;2.95;;;19.80;99.90;;;;;;5048169;28;20528;-41
2023/07/12 02:46:15;;;;;;;5.53;3.13;;;19.80;99.90;;;;;;5063228;28;20389;-42
2023/07/12 02:48:44;;;;;;;4.90;2.90;;;19.80;99.90;;;;;;5053390;28;20057;-44
2023/07/12 02:51:11;;;;;;;4.53;2.55;;;19.80;99.90;;;;;;5059759;28;20036;-42
2023/07/12 02:53:39;;;;;;;5.03;2.95;;;19.90;99.90;;;;;;5059364;28;20187;-42
2023/07/12 02:56:08;;;;;;;5.28;2.70;;;19.80;99.90;;;;;;5050056;28;20490;-42
2023/07/12 02:58:36;;;;;;;5.93;2.38;;;19.90;99.90;;;;;;5059324;28;20052;-44
2023/07/12 03:01:04;;;;;;;5.22;2.83;;;19.90;99.90;;;;;;5056236;28;20080;-42
2023/07/12 03:03:32;;;;;;;4.78;2.75;;;19.80;99.90;;;;;;5057146;28;20041;-41
2023/07/12 03:06:08;;;;;;;8.25;2.80;;;19.80;99.90;;;;;;5056873;28;20112;-43
2023/07/12 03:08:35;;;;;;;4.07;2.40;;;19.80;99.90;;;;;;5055797;28;20582;-44
2023/07/12 03:11:04;;;;;;;4.93;2.75;;;19.80;99.90;;;;;;5058881;28;20580;-43
2023/07/12 03:13:33;;;;;;;4.45;2.60;;;19.80;99.90;;;;;;5056278;28;20079;-43
2023/07/12 03:16:04;;;;;;;5.57;3.10;;;19.70;99.90;;;;;;5054633;28;20052;-43
2023/07/12 03:18:31;;;;;;;4.97;2.85;;;19.70;99.90;;;;;;5038395;28;20071;-43
2023/07/12 03:21:03;;;;;;;5.22;2.97;;;19.70;99.90;;;;;;5056074;28;20140;-41
2023/07/12 03:23:32;;;;;;;7.57;2.72;;;19.70;99.90;;;;;;5052706;28;20056;-38
2023/07/12 03:26:00;;;;;;;4.03;2.50;;;19.70;99.90;;;;;;5051962;28;20053;-42
2023/07/12 03:28:28;;;;;;;5.10;2.10;;;19.70;99.90;;;;;;5056228;28;20060;-43
2023/07/12 03:31:07;;;;;;;5.35;2.35;;;19.70;99.90;;;;;;5059999;28;20044;-43
2023/07/12 03:33:35;;;;;;;4.18;2.45;;;19.70;99.90;;;;;;5054938;28;20117;-41
2023/07/12 03:36:03;;;;;;;6.72;2.90;;;19.70;99.90;;;;;;5056885;28;20049;-41
2023/07/12 03:38:31;;;;;;;5.07;2.33;;;19.80;99.90;;;;;;5051476;28;20049;-43
2023/07/12 03:41:03;;;;;;;3.70;2.22;;;19.70;99.90;;;;;;5055374;28;20057;-42
2023/07/12 03:43:32;;;;;;;4.75;2.45;;;19.70;99.90;;;;;;5063359;28;20044;-41
2023/07/12 03:46:00;;;;;;;5.05;2.53;;;19.70;99.90;;;;;;5049247;28;20037;-41
2023/07/12 03:48:27;;;;;;;4.95;2.50;;;19.70;99.90;;;;;;5056750;28;20048;-44
2023/07/12 03:50:55;;;;;;;5.22;2.35;;;19.80;99.90;;;;;;5052442;28;20071;-42
2023/07/12 03:53:27;;;;;;;5.18;2.95;;;19.80;99.90;;;;;;5061482;28;20044;-43
2023/07/12 03:56:03;;;;;;;4.60;2.75;;;19.80;99.90;;;;;;5036047;28;20048;-41
2023/07/12 03:58:33;;;;;;;6.00;2.20;;;19.90;99.90;;;;;;5054072;28;20489;-44
2023/07/12 04:01:03;;;;;;;4.72;2.22;;;20.00;99.90;;;;;;5057294;28;20041;-42
2023/07/12 04:03:32;;;;;;;4.43;2.10;;;20.00;99.90;;;;;;5059355;28;20433;-42
2023/07/12 04:05:59;;;;;;;6.88;2.28;;;20.00;99.90;;;;;;5053941;28;20048;-44
2023/07/12 04:08:26;;;;;;;5.78;2.70;;;20.00;99.90;;;;;;5059860;28;20530;-44
2023/07/12 04:10:55;;;;;;;6.20;2.40;;;20.10;99.90;;;;;;5055674;28;20045;-43
2023/07/12 04:13:24;;;;;;;3.65;2.00;;;20.10;99.90;;;;;;5052447;28;20056;-43
2023/07/12 04:15:55;;;;;;;4.13;2.30;;;20.20;99.90;;;;;;5058026;28;20044;-41
2023/07/12 04:18:24;;;;;;;5.10;2.42;;;20.20;99.90;;;;;;5059439;28;20044;-43
2023/07/12 04:20:54;;;;;;;4.13;2.30;;;20.30;99.90;;;;;;5055128;28;20054;-42
2023/07/12 04:23:21;;;;;;;5.28;2.58;;;20.30;99.90;;;;;;5055721;28;20186;-44
2023/07/12 04:25:57;;;;;;;4.13;2.22;;;20.40;99.90;;;;;;5058192;28;20075;-44
2023/07/12 04:28:26;;;;;;;4.05;2.40;;;20.40;99.90;;;;;;5057653;28;20080;-40
2023/07/12 04:30:53;;;;;;;4.28;2.35;;;20.50;99.90;;;;;;5058906;28;20091;-42
2023/07/12 04:33:22;;;;;;;5.35;2.20;;;20.50;99.90;;;;;;5055230;28;20047;-43
2023/07/12 04:35:49;;;;;;;4.50;2.25;;;20.50;99.90;;;;;;5058605;28;20424;-42
2023/07/12 04:38:16;;;;;;;4.35;2.30;;;20.50;99.90;;;;;;5058932;28;20139;-42
2023/07/12 04:40:55;;;;;;;3.88;2.38;;;20.60;99.90;;;;;;5053546;28;20513;-42
2023/07/12 04:43:22;;;;;;;5.05;2.42;;;20.60;99.90;;;;;;5061085;28;20044;-45
2023/07/12 04:45:50;;;;;;;5.40;2.85;;;20.60;99.90;;;;;;5057689;28;20052;-42
2023/07/12 04:48:18;;;;;;;4.03;2.55;;;20.70;99.90;;;;;;5054345;28;20160;-43
2023/07/12 04:50:45;;;;;;;4.45;2.60;;;20.70;99.90;;;;;;5057861;28;20045;-44
2023/07/12 04:53:12;;;;;;;5.78;2.33;;;20.70;99.90;;;;;;5053539;28;20391;-43
2023/07/12 04:55:40;;;;;;;5.95;3.00;;;20.70;99.90;;;;;;5050073;28;20099;-46
2023/07/12 04:58:08;;;;;;;5.65;2.92;;;20.80;99.90;;;;;;5037828;28;20087;-46
2023/07/12 05:00:35;;;;;;;5.57;2.72;;;20.70;99.90;;;;;;5049682;28;20143;-46
2023/07/12 05:03:03;;;;;;;5.03;2.80;;;20.90;99.90;;;;;;5030957;28;20081;-46
2023/07/12 05:05:30;;;;;;;6.63;2.97;;;21.00;99.90;;;;;;5064770;28;20497;-42
2023/07/12 05:07:57;;;;;;;6.60;2.83;;;21.10;99.90;;;;;;5054601;28;20081;-46
2023/07/12 05:10:25;;;;;;;5.40;2.67;;;21.30;99.90;;;;;;5061563;28;20343;-44
2023/07/12 05:12:52;;;;;;;5.53;3.03;;;21.30;99.90;;;;;;5059489;28;20044;-46
2023/07/12 05:15:20;;;;;;;7.18;3.03;;;21.30;99.90;;;;;;5055080;28;20051;-47
2023/07/12 05:17:47;;;;;;;4.53;2.58;;;21.30;99.90;;;;;;5073770;28;20105;-44
2023/07/12 05:20:15;;;;;;;5.57;3.10;;;21.40;99.90;;;;;;5062364;28;20072;-47
2023/07/12 05:22:43;;;;;;;5.63;2.95;;;21.40;99.90;;;;;;5061723;28;20070;-46
2023/07/12 05:25:10;;;;;;;6.38;3.15;;;21.40;99.90;;;;;;5054495;28;20545;-47
2023/07/12 05:27:39;;;;;;;4.53;2.83;;;21.40;99.90;;;;;;5051344;28;20045;-45
2023/07/12 05:30:07;;;;;;;7.07;2.70;;;21.50;99.90;;;;;;5057711;28;20529;-46
2023/07/12 05:32:34;;;;;;;7.95;3.15;;;21.50;99.90;;;;;;5044236;28;20124;-46
2023/07/12 05:35:01;;;;;;;7.32;2.95;;;21.60;99.90;;;;;;5055856;28;20080;-44
2023/07/12 05:37:29;;;;;;;6.55;4.30;;;21.60;99.90;;;;;;5057326;28;20468;-46
2023/07/12 05:40:00;;;;;;;8.38;4.95;;;21.60;99.90;;;;;;5054886;28;20134;-46
2023/07/12 05:42:28;;;;;;;7.40;3.33;;;21.80;99.90;;;;;;5052890;28;20072;-46
2023/07/12 05:44:55;;;;;;;5.95;3.20;;;21.80;99.90;;;;;;5067145;28;20055;-47
2023/07/12 05:47:23;;;;;;;6.82;3.05;;;21.80;99.90;;;;;;5059333;28;20079;-46
2023/07/12 05:49:50;;;;;;;7.00;3.30;;;22.00;99.90;;;;;;5058989;28;20040;-44
2023/07/12 05:52:17;;;;;;;4.80;3.22;;;22.00;99.90;;;;;;5056255;28;20139;-47
2023/07/12 05:54:44;;;;;;;5.80;3.28;;;22.20;99.90;;;;;;5059729;28;20211;-46
2023/07/12 05:57:12;;;;;;;8.93;3.15;;;22.30;99.90;;;;;;5064239;28;20504;-47
2023/07/12 05:59:39;;;;;;;7.97;4.15;;;22.30;99.90;;;;;;5055856;28;20047;-47
2023/07/12 06:02:12;;;;;;;9.00;3.05;;;22.40;99.90;;;;;;5066380;28;20075;-47
2023/07/12 06:04:41;;;;;;;5.40;3.45;;;22.40;99.90;;;;;;5068437;28;20521;-46
2023/07/12 06:07:08;;;;;;;6.53;3.25;;;22.60;99.90;;;;;;5063220;28;20057;-49
2023/07/12 06:09:35;;;;;;;47.13;7.50;;;22.70;99.90;;;;;;5059212;28;20073;-39
2023/07/12 06:12:03;;;;;;;48.55;6.30;;;22.90;99.90;;;;;;5064862;28;20521;-43
2023/07/12 06:14:30;;;;;;;7.22;3.65;;;23.10;99.90;;;;;;5058229;28;20041;-37
2023/07/12 06:16:58;;;;;;;7.65;3.20;;;23.20;99.90;;;;;;5069929;28;20047;-41
2023/07/12 06:19:25;;;;;;;5.50;3.22;;;23.10;99.90;;;;;;5053060;28;20117;-41
2023/07/12 06:21:53;;;;;;;10.55;5.07;;;23.00;99.90;;;;;;5084097;28;20064;-41
2023/07/12 06:24:20;;;;;;;10.45;4.60;;;22.80;99.90;;;;;;5071779;28;20412;-41
2023/07/12 06:26:48;;;;;;;9.52;3.72;;;22.80;99.90;;;;;;5067233;28;20118;-40
2023/07/12 06:29:15;;;;;;;6.10;3.83;;;22.90;99.90;;;;;;5068762;28;20041;-39
2023/07/12 06:31:43;;;;;;;7.53;3.90;;;22.90;99.90;;;;;;5042199;28;20532;-40
2023/07/12 06:34:11;;;;;;;8.80;3.80;;;23.00;99.90;;;;;;5066418;28;20052;-40
2023/07/12 06:36:38;;;;;;;8.23;3.78;;;22.90;99.90;;;;;;5078827;28;20051;-41
2023/07/12 06:39:06;;;;;;;6.55;3.53;;;22.80;99.90;;;;;;5059249;28;20065;-41
2023/07/12 06:41:33;;;;;;;6.95;4.25;;;22.90;99.90;;;;;;5069571;28;20053;-41
2023/07/12 06:44:01;;;;;;;5.25;3.70;;;22.90;99.90;;;;;;5058757;28;20049;-40
2023/07/12 06:46:28;;;;;;;6.75;3.70;;;22.90;99.90;;;;;;5070472;28;20052;-39
2023/07/12 06:48:55;;;;;;;6.82;3.58;;;23.10;99.90;;;;;;5058024;28;20052;-41
2023/07/12 06:51:23;;;;;;;5.38;3.38;;;23.20;99.90;;;;;;5057925;28;20037;-41
2023/07/12 06:53:51;;;;;;;10.90;3.97;;;23.10;99.90;;;;;;5059526;28;20037;-38
2023/07/12 06:56:18;;;;;;;7.57;3.95;;;23.30;99.90;;;;;;5061698;28;20041;-40
2023/07/12 06:58:45;;;;;;;9.57;3.83;;;23.40;99.90;;;;;;5034581;28;20808;-42
2023/07/12 07:01:13;;;;;;;7.93;3.95;;;23.30;99.90;;;;;;5060972;28;20446;-41
2023/07/12 07:03:40;;;;;;;11.50;4.45;;;23.50;99.90;;;;;;5061411;28;20081;-39
2023/07/12 07:06:08;;;;;;;7.22;4.05;;;23.40;99.90;;;;;;5061173;28;20487;-40
2023/07/12 07:08:35;;;;;;;6.20;4.30;;;23.60;99.90;;;;;;5074158;28;20032;-40
2023/07/12 07:11:03;;;;;;;7.00;4.30;;;23.80;99.90;;;;;;5065988;28;20461;-38
2023/07/12 07:13:30;;;;;;;9.23;4.30;;;24.00;99.90;;;;;;5062013;28;20558;-40
2023/07/12 07:15:58;;;;;;;10.55;4.60;;;24.20;99.90;;;;;;5060071;28;20044;-37
2023/07/12 07:18:25;;;;;;;8.95;5.00;;;24.20;99.90;;;;;;5054492;28;20135;-40
2023/07/12 07:20:53;;;;;;;8.95;5.05;;;24.40;99.90;;;;;;5053356;28;20049;-39
2023/07/12 07:23:20;;;;;;;8.40;4.70;;;24.50;99.90;;;;;;5056536;28;20456;-41
2023/07/12 07:25:47;;;;;;;12.27;5.30;;;24.50;99.90;;;;;;5058306;28;20059;-40
2023/07/12 07:28:15;;;;;;;8.65;5.03;;;24.70;99.90;;;;;;5062422;28;20087;-41
2023/07/12 07:30:42;;;;;;;10.75;5.07;;;24.60;99.90;;;;;;5065946;23;20045;-48
2023/07/12 07:33:11;;;;;;;7.60;4.70;;;24.80;99.90;;;;;;5052030;28;20163;-46
2023/07/12 07:35:39;;;;;;;7.75;5.57;;;25.00;99.90;;;;;;5041638;28;20067;-48
2023/07/12 07:38:06;;;;;;;9.60;5.18;;;25.10;99.90;;;;;;5047700;28;20517;-43
2023/07/12 07:40:33;;;;;;;11.02;5.32;;;25.10;99.90;;;;;;5046292;28;20045;-46
2023/07/12 07:43:01;;;;;;;8.32;5.18;;;25.00;99.90;;;;;;5029634;28;20108;-46
2023/07/12 07:45:28;;;;;;;11.93;5.20;;;25.00;99.90;;;;;;5038693;28;20103;-52
2023/07/12 07:47:55;;;;;;;12.73;5.45;;;25.30;99.90;;;;;;5040164;28;20617;-45
2023/07/12 07:50:23;;;;;;;10.18;5.50;;;25.40;99.90;;;;;;5035907;28;20075;-47
2023/07/12 07:52:53;;;;;;;11.02;5.80;;;25.60;99.90;;;;;;5038401;28;20036;-46
2023/07/12 07:55:21;;;;;;;10.20;5.80;;;25.90;99.90;;;;;;5040631;28;20055;-46
2023/07/12 07:57:48;;;;;;;9.85;6.28;;;26.10;99.90;;;;;;5036880;28;20061;-48
2023/07/12 08:00:16;;;;;;;8.45;5.97;;;26.10;99.90;;;;;;5036390;28;20425;-47
2023/07/12 08:02:43;;;;;;;13.57;6.65;;;26.10;99.90;;;;;;5037634;28;20394;-49
2023/07/12 08:05:12;;;;;;;10.20;6.43;;;26.20;99.90;;;;;;5037575;28;20041;-48
2023/07/12 08:07:42;;;;;;;11.40;6.28;;;25.90;99.90;;;;;;5045742;28;20128;-48
2023/07/12 08:10:11;;;;;;;12.13;6.40;;;25.80;99.90;;;;;;5042649;28;20046;-50
2023/07/12 08:12:39;;;;;;;9.75;5.93;;;25.80;99.90;;;;;;5034933;28;20045;-48
2023/07/12 08:15:07;;;;;;;10.23;6.00;;;25.90;99.90;;;;;;5040668;28;20045;-43
2023/07/12 08:17:35;;;;;;;8.93;6.30;;;25.90;99.90;;;;;;5036544;28;20037;-47
2023/07/12 08:20:04;;;;;;;10.98;6.35;;;26.00;99.90;;;;;;5040595;28;20357;-47
2023/07/12 08:22:32;;;;;;;10.02;6.15;;;26.00;99.90;;;;;;5035402;28;20075;-44
2023/07/12 08:25:00;;;;;;;11.05;6.35;;;25.90;99.90;;;;;;5037502;28;20051;-47
2023/07/12 08:27:28;;;;;;;7.97;5.97;;;25.80;99.90;;;;;;5038873;28;20123;-44
2023/07/12 08:29:55;;;;;;;11.75;6.30;;;25.90;99.90;;;;;;5035903;28;20045;-47
2023/07/12 08:32:22;;;;;;;9.68;6.20;;;25.90;99.90;;;;;;5043367;28;20059;-45
2023/07/12 08:34:50;;;;;;;10.95;6.70;;;26.00;99.90;;;;;;5033704;28;20045;-54
2023/07/12 08:37:17;;;;;;;9.15;6.22;;;26.30;99.90;;;;;;5042658;28;20049;-52
2023/07/12 08:39:44;;;;;;;9.57;6.50;;;26.20;99.90;;;;;;5035174;28;20033;-48
2023/07/12 08:42:14;;;;;;;9.77;6.47;;;26.40;99.90;;;;;;5038818;28;20125;-50
2023/07/12 08:44:42;;;;;;;9.30;6.40;;;26.50;99.90;;;;;;5036648;28;20045;-51
2023/07/12 08:47:18;;;;;;;9.55;6.57;;;26.50;99.90;;;;;;5031698;28;20114;-46
2023/07/12 08:49:45;;;;;;;10.25;6.53;;;26.70;99.90;;;;;;5036069;28;20044;-50
2023/07/12 08:52:17;;;;;;;10.07;6.70;;;27.00;99.90;;;;;;5035178;28;20124;-49
2023/07/12 08:54:45;;;;;;;7.03;5.95;;;26.90;99.90;;;;;;5039322;28;20088;-51
2023/07/12 08:57:24;;;;;;;13.05;7.30;;;27.10;99.90;;;;;;5033514;28;20075;-49
2023/07/12 09:00:07;;;;;;;13.23;6.63;;;27.20;99.90;;;;;;5038692;28;20057;-50
2023/07/12 09:02:35;;;;;;;9.63;6.28;;;27.20;99.90;;;;;;5027129;28;20052;-51
2023/07/12 09:05:24;;;;;;;8.73;6.68;;;27.30;99.90;;;;;;5034566;28;20125;-45
2023/07/12 09:08:06;;;;;;;9.45;6.10;;;26.80;99.90;;;;;;5036729;28;20114;-53
2023/07/12 09:10:39;;;;;;;;;;;26.50;99.90;;;;;;5033024;28;20128;-50
2023/07/12 09:13:10;;;;;;;12.07;6.35;;;26.30;99.90;;;;;;5034162;28;19921;-49
2023/07/12 09:15:40;;;;;;;7.50;6.15;;;26.40;99.90;;;;;;5035618;28;20075;-48
2023/07/12 09:18:09;;;;;;;11.25;6.57;;;26.30;99.90;;;;;;5034930;28;20103;-49
2023/07/12 09:20:40;;;;;;;12.98;6.70;;;26.20;99.90;;;;;;5034637;28;20048;-50
2023/07/12 09:23:11;;;;;;;8.88;6.25;;;26.20;99.90;;;;;;5046043;28;20052;-48
2023/07/12 09:25:39;;;;;;;8.90;6.93;;;26.20;99.90;;;;;;5036045;28;20048;-51
2023/07/12 09:28:12;;;;;;;10.98;6.45;;;26.00;99.90;;;;;;5032770;28;20046;-45
2023/07/12 09:30:39;;;;;;;10.57;6.65;;;26.00;99.90;;;;;;5038418;28;20056;-49
2023/07/12 09:33:15;;;;;;;9.65;6.20;;;26.10;99.90;;;;;;5051376;28;20162;-45
2023/07/12 09:35:45;;;;;;;10.27;5.97;;;26.20;99.90;;;;;;5034227;28;20115;-48
2023/07/12 09:38:24;;;;;;;12.65;7.13;;;26.20;99.90;;;;;;5054172;28;20429;-48
2023/07/12 09:40:53;;;;;;;10.52;6.60;;;26.20;99.90;;;;;;5055952;28;20125;-49
2023/07/12 09:43:23;;;;;;;9.95;6.45;;;26.20;99.90;;;;;;5055062;28;20037;-50
2023/07/12 09:46:02;;;;;;;11.25;6.75;;;26.20;99.90;;;;;;5054420;28;20413;-51
2023/07/12 09:48:33;;;;;;;;;;;26.20;99.90;;;;;;5056237;28;20068;-49
2023/07/12 09:51:15;;;;;;;9.73;6.30;;;26.40;99.90;;;;;;5052333;28;20392;-49
2023/07/12 09:54:08;;;;;;;13.02;6.15;;;26.50;99.90;;;;;;5054111;28;20155;-52
2023/07/12 09:56:44;;;;;;;8.48;6.40;;;26.50;99.90;;;;;;5038452;28;20056;-48
2023/07/12 09:59:49;;;;;;;6.07;5.47;;;26.50;99.90;;;;;;5057565;28;20492;-50
2023/07/12 10:02:28;;;;;;;8.40;5.75;;;26.50;99.90;;;;;;5053565;28;20509;-50
2023/07/12 10:05:02;;;;;;;8.63;6.00;;;26.60;99.90;;;;;;5053452;28;20041;-52
2023/07/12 10:07:51;;;;;;;8.52;6.03;;;26.60;99.90;;;;;;5055820;28;20575;-53
2023/07/12 10:10:27;;;;;;;7.25;6.00;;;26.80;99.90;;;;;;5054346;28;20048;-49
2023/07/12 10:13:24;;;;;;;7.28;6.05;;;26.90;99.90;;;;;;5052949;28;20075;-51
2023/07/12 10:15:51;;;;;;;7.60;5.95;;;27.00;99.90;;;;;;5051640;28;20484;-52
2023/07/12 10:18:28;;;;;;;6.57;5.80;;;26.80;99.90;;;;;;5053886;28;20053;-49
2023/07/12 10:20:56;;;;;;;8.40;6.05;;;26.70;99.90;;;;;;5051860;28;20049;-50
2023/07/12 10:23:28;;;;;;;6.97;6.28;;;26.80;99.90;;;;;;5054372;28;20111;-48
2023/07/12 10:25:59;;;;;;;8.40;6.30;;;26.90;99.90;;;;;;5054314;28;20044;-49
2023/07/12 10:28:35;;;;;;;8.45;6.55;;;26.90;99.90;;;;;;5055892;28;20087;-49
2023/07/12 10:31:25;;;;;;;14.05;7.05;;;27.10;99.90;;;;;;5070713;28;20451;-47
2023/07/12 10:33:59;;;;;;;6.32;5.72;;;27.20;99.90;;;;;;5031193;28;20033;-51
2023/07/12 10:36:26;;;;;;;10.00;5.85;;;27.30;99.90;;;;;;5054292;28;20092;-49
2023/07/12 10:38:54;;;;;;;8.55;6.32;;;27.50;99.90;;;;;;5050425;28;20075;-47
2023/07/12 10:41:34;;;;;;;10.02;6.45;;;27.50;99.90;;;;;;5055385;28;20107;-49
2023/07/12 10:44:19;;;;;;;7.03;6.05;;;27.50;99.90;;;;;;5053910;28;20041;-46
2023/07/12 10:46:54;;;;;;;8.55;6.32;;;27.50;99.90;;;;;;5057908;28;20037;-50
2023/07/12 10:49:48;;;;;;;12.25;6.90;;;27.50;99.90;;;;;;5061352;28;20062;-47
2023/07/12 10:52:29;;;;;;;10.43;6.10;;;27.60;99.90;;;;;;5048461;28;20144;-49
2023/07/12 10:55:02;;;;;;;9.00;6.17;;;27.80;99.90;;;;;;5059060;28;20041;-49
2023/07/12 10:57:46;;;;;;;7.80;6.50;;;28.00;99.90;;;;;;5054159;28;20326;-49
2023/07/12 11:00:16;;;;;;;8.20;6.15;;;28.40;99.90;;;;;;5060485;28;20083;-47
2023/07/12 11:02:47;;;;;;;7.75;6.80;;;28.40;99.90;;;;;;5049606;28;20522;-47
2023/07/12 11:05:41;;;;;;;11.32;6.25;;;28.40;99.90;;;;;;5058843;28;20053;-51
2023/07/12 11:08:30;;;;;;;7.72;6.50;;;28.60;99.90;;;;;;5052540;28;20052;-47
2023/07/12 11:11:09;;;;;;;8.18;6.70;;;28.50;99.90;;;;;;5060556;28;20078;-47
2023/07/12 11:13:44;;;;;;;7.00;6.30;;;28.60;99.90;;;;;;5060749;28;20098;-49
2023/07/12 11:16:18;;;;;;;10.27;6.80;;;28.30;99.90;;;;;;5059184;28;20053;-49
2023/07/12 11:18:52;;;;;;;8.10;7.30;;;28.30;99.90;;;;;;5060664;28;20728;-48
2023/07/12 11:21:39;;;;;;;8.23;6.68;;;28.40;99.90;;;;;;5058904;28;20045;-47
2023/07/12 11:24:25;;;;;;;9.45;7.10;;;28.50;99.90;;;;;;5055266;28;20048;-51
2023/07/12 11:27:01;;;;;;;7.47;6.70;;;28.40;99.90;;;;;;5058989;28;20040;-45
2023/07/12 11:29:32;;;;;;;8.32;7.43;;;28.50;99.90;;;;;;5059529;28;20049;-49
2023/07/12 11:32:25;;;;;;;8.07;6.43;;;28.10;99.90;;;;;;5054798;28;20091;-56
2023/07/12 11:35:01;;;;;;;10.73;7.43;;;28.20;99.90;;;;;;5058860;28;20044;-46
2023/07/12 11:37:36;;;;;;;8.23;7.30;;;28.30;99.90;;;;;;5051136;28;20484;-51
2023/07/12 11:40:20;;;;;;;7.82;7.05;;;28.60;99.90;;;;;;5055975;28;20080;-48
2023/07/12 11:42:48;;;;;;;10.32;7.28;;;28.60;99.90;;;;;;5066763;28;20052;-47
2023/07/12 11:45:20;;;;;;;8.27;7.47;;;28.90;99.90;;;;;;5058590;28;20055;-50
2023/07/12 11:47:51;;;;;;;8.85;7.45;;;28.90;99.90;;;;;;5057923;28;20106;-46
2023/07/12 11:50:27;;;;;;;11.52;7.45;;;29.10;99.90;;;;;;5057588;28;20139;-48
2023/07/12 11:52:55;;;;;;;10.63;7.70;;;28.90;99.90;;;;;;5059414;28;20033;-50
2023/07/12 11:55:28;;;;;;;9.35;7.28;;;29.00;99.90;;;;;;5056541;28;20556;-49
2023/07/12 11:57:56;;;;;;;8.73;7.82;;;29.30;99.90;;;;;;5060212;28;20048;-52
2023/07/12 12:00:28;;;;;;;9.45;7.10;;;29.40;99.90;;;;;;5059530;28;20140;-50
2023/07/12 12:02:58;;;;;;;10.07;7.78;;;30.00;99.90;;;;;;5055604;28;20541;-50
2023/07/12 12:05:33;;;;;;;10.57;7.55;;;30.40;99.90;;;;;;5054025;28;20539;-46
2023/07/12 12:08:03;;;;;;;10.75;7.00;;;30.50;99.90;;;;;;5057966;28;20422;-51
2023/07/12 12:10:40;;;;;;;10.75;6.72;;;30.50;99.90;;;;;;5066925;28;20032;-46
2023/07/12 12:13:19;;;;;;;10.98;7.65;;;30.80;99.90;;;;;;5051308;28;20041;-48
2023/07/12 12:15:50;;;;;;;7.80;7.00;;;30.60;99.90;;;;;;5058038;28;20052;-53
2023/07/12 12:18:20;;;;;;;9.50;7.38;;;30.40;99.90;;;;;;5059484;28;20094;-47
2023/07/12 12:20:59;;;;;;;8.60;7.40;;;30.10;99.90;;;;;;5056979;28;20048;-47
2023/07/12 12:23:37;;;;;;;8.43;7.53;;;29.80;99.90;;;;;;5055973;28;20087;-49
2023/07/12 12:26:19;;;;;;;8.75;7.15;;;29.40;99.90;;;;;;5051295;28;20127;-48
2023/07/12 12:28:51;;;;;;;;;;;29.40;99.90;;;;;;5056411;28;20072;-49
2023/07/12 12:31:23;;;;;;;8.48;6.90;;;29.60;99.90;;;;;;5058408;28;19986;-43
2023/07/12 12:34:03;;;;;;;9.90;7.07;;;29.60;99.90;;;;;;5057247;28;20079;-48
2023/07/12 12:36:33;;;;;;;10.85;7.70;;;30.60;99.90;;;;;;5056613;28;20753;-45
2023/07/12 12:39:27;;;;;;;8.60;7.00;;;31.20;99.90;;;;;;5063139;28;20078;-44
2023/07/12 12:41:58;;;;;;;14.48;7.50;;;32.10;99.90;;;;;;5053752;28;20045;-50
2023/07/12 12:44:30;;;;;;;12.63;7.20;;;32.50;99.90;;;;;;5059742;28;20168;-49
2023/07/12 12:47:00;;;;;;;7.63;6.97;;;33.30;99.00;;;;;;5054825;28;20303;-48
2023/07/12 12:49:44;;;;;;;8.10;7.20;;;32.90;97.50;;;;;;5051762;28;20052;-45
2023/07/12 12:52:27;;;;;;;8.13;7.30;;;32.70;99.20;;;;;;5053854;28;20102;-51
2023/07/12 12:55:00;;;;;;;9.18;8.05;;;32.30;97.30;;;;;;5052205;28;20127;-45
2023/07/12 12:57:36;;;;;;;7.82;7.03;;;32.10;98.30;;;;;;5059855;28;20433;-52
2023/07/12 13:00:20;;;;;;;9.38;6.80;;;31.60;98.00;;;;;;5054020;28;20365;-51
2023/07/12 13:02:54;;;;;;;7.90;7.07;;;30.70;98.50;;;;;;5058448;28;20060;-45
2023/07/12 13:05:27;;;;;;;10.65;7.32;;;30.40;99.80;;;;;;5054631;28;20107;-45